createdAt,value
2023-03-04T00:01:37.514Z,13.93
2023-03-04T00:04:05.779Z,12.80
2023-03-04T00:06:35.166Z,13.40
2023-03-04T00:09:04.660Z,13.93
2023-03-04T00:11:33.546Z,14.13
2023-03-04T00:14:01.987Z,13.90
2023-03-04T00:16:30.080Z,13.77
2023-03-04T00:18:58.695Z,13.50
2023-03-04T00:21:26.958Z,14.57
2023-03-04T00:23:56.433Z,14.10
2023-03-04T00:26:24.748Z,14.33
2023-03-04T00:28:52.748Z,12.10
2023-03-04T00:31:20.818Z,12.37
2023-03-04T00:33:49.261Z,13.03
2023-03-04T00:36:17.434Z,12.73
2023-03-04T00:38:45.470Z,12.80
2023-03-04T00:41:14.866Z,12.63
2023-03-04T00:43:43.050Z,12.90
2023-03-04T00:46:11.125Z,13.77
2023-03-04T00:48:39.547Z,13.00
2023-03-04T00:51:07.572Z,14.20
2023-03-04T00:53:35.912Z,12.47
2023-03-04T00:56:04.766Z,12.50
2023-03-04T00:58:34.351Z,13.03
2023-03-04T01:01:02.528Z,12.50
2023-03-04T01:03:32.555Z,13.23
2023-03-04T01:06:01.170Z,12.07
2023-03-04T01:08:29.468Z,13.50
2023-03-04T01:10:57.557Z,13.20
2023-03-04T01:13:25.784Z,12.13
2023-03-04T01:15:56.108Z,12.13
2023-03-04T01:18:24.315Z,10.97
2023-03-04T01:20:54.642Z,12.33
2023-03-04T01:23:23.278Z,11.83
2023-03-04T01:25:51.418Z,12.20
2023-03-04T01:28:20.372Z,11.60
2023-03-04T01:30:49.665Z,12.23
2023-03-04T01:33:19.504Z,12.27
2023-03-04T01:35:47.961Z,12.60
2023-03-04T01:38:16.041Z,10.73
2023-03-04T01:40:44.150Z,11.73
2023-03-04T01:43:28.193Z,12.17
2023-03-04T01:45:58.659Z,11.77
2023-03-04T01:48:31.281Z,12.57
2023-03-04T01:51:02.904Z,12.50
2023-03-04T01:53:34.156Z,11.83
2023-03-04T01:56:11.054Z,12.07
2023-03-04T01:58:39.199Z,12.70
2023-03-04T02:01:07.216Z,12.30
2023-03-04T02:03:36.651Z,12.03
2023-03-04T02:06:05.233Z,11.70
2023-03-04T02:08:33.462Z,10.87
2023-03-04T02:11:01.460Z,11.50
2023-03-04T02:13:29.570Z,11.57
2023-03-04T02:15:57.738Z,10.43
2023-03-04T02:18:26.052Z,10.60
2023-03-04T02:21:05.969Z,9.47
2023-03-04T02:23:43.237Z,9.43
2023-03-04T02:26:18.711Z,9.00
2023-03-04T02:28:52.405Z,9.30
2023-03-04T02:31:27.120Z,9.60
2023-03-04T02:34:00.457Z,8.63
2023-03-04T02:36:30.044Z,8.47
2023-03-04T02:39:04.941Z,8.60
2023-03-04T02:41:34.755Z,9.27
2023-03-04T02:44:02.899Z,9.03
2023-03-04T02:46:31.262Z,8.67
2023-03-04T02:48:59.415Z,9.73
2023-03-04T02:51:28.729Z,8.67
2023-03-04T02:53:56.935Z,8.63
2023-03-04T02:56:25.017Z,8.70
2023-03-04T02:58:54.444Z,9.23
2023-03-04T03:01:22.907Z,9.00
2023-03-04T03:03:51.155Z,8.87
2023-03-04T03:06:20.360Z,7.57
2023-03-04T03:08:48.429Z,8.00
2023-03-04T03:11:17.454Z,8.40
2023-03-04T03:13:46.608Z,8.83
2023-03-04T03:16:16.849Z,8.93
2023-03-04T03:18:44.946Z,8.30
2023-03-04T03:21:12.991Z,7.73
2023-03-04T03:23:41.378Z,9.03
2023-03-04T03:26:09.734Z,8.97
2023-03-04T03:28:37.971Z,8.30
2023-03-04T03:31:06.402Z,9.83
2023-03-04T03:33:35.830Z,8.07
2023-03-04T03:36:04.178Z,8.90
2023-03-04T03:38:32.293Z,8.23
2023-03-04T03:41:00.513Z,9.07
2023-03-04T03:43:28.595Z,8.47
2023-03-04T03:45:56.650Z,8.77
2023-03-04T03:48:24.705Z,8.80
2023-03-04T03:50:54.586Z,9.30
2023-03-04T03:53:22.591Z,8.77
2023-03-04T03:55:50.677Z,9.07
2023-03-04T03:58:18.692Z,9.13
2023-03-04T04:00:46.694Z,8.57
2023-03-04T04:03:16.415Z,8.70
2023-03-04T04:05:44.468Z,8.60
2023-03-04T04:08:15.450Z,8.33
2023-03-04T04:10:44.208Z,9.33
2023-03-04T04:13:12.931Z,9.13
2023-03-04T04:15:41.058Z,8.37
2023-03-04T04:18:09.215Z,9.63
2023-03-04T04:20:37.654Z,8.27
2023-03-04T04:23:06.412Z,8.53
2023-03-04T04:25:35.768Z,7.77
2023-03-04T04:28:04.047Z,8.87
2023-03-04T04:30:32.154Z,8.30
2023-03-04T04:33:01.826Z,8.10
2023-03-04T04:35:29.905Z,9.70
2023-03-04T04:37:58.138Z,8.77
2023-03-04T04:40:26.324Z,8.53
2023-03-04T04:42:55.882Z,8.73
2023-03-04T04:45:24.714Z,9.53
2023-03-04T04:47:53.235Z,8.80
2023-03-04T04:50:21.561Z,9.27
2023-03-04T04:52:49.612Z,9.17
2023-03-04T04:55:17.990Z,9.10
2023-03-04T04:57:46.048Z,9.07
2023-03-04T05:00:18.971Z,9.83
2023-03-04T05:02:47.367Z,8.83
2023-03-04T05:05:15.476Z,8.50
2023-03-04T05:07:43.484Z,9.00
2023-03-04T05:10:12.708Z,8.13
2023-03-04T05:12:40.968Z,8.23
2023-03-04T05:15:17.068Z,8.30
2023-03-04T05:17:45.121Z,9.17
2023-03-04T05:20:13.820Z,9.13
2023-03-04T05:22:41.985Z,8.37
2023-03-04T05:25:11.157Z,9.43
2023-03-04T05:27:39.155Z,8.80
2023-03-04T05:30:09.385Z,9.73
2023-03-04T05:32:38.860Z,8.00
2023-03-04T05:35:08.105Z,8.70
2023-03-04T05:37:36.347Z,10.27
2023-03-04T05:40:06.193Z,9.83
2023-03-04T05:42:34.215Z,9.03
2023-03-04T05:45:02.584Z,8.10
2023-03-04T05:47:30.800Z,8.93
2023-03-04T05:50:00.159Z,9.83
2023-03-04T05:52:28.377Z,9.23
2023-03-04T05:54:56.694Z,7.97
2023-03-04T05:57:24.754Z,8.80
2023-03-04T05:59:52.869Z,9.33
2023-03-04T06:02:20.922Z,8.73
2023-03-04T06:04:49.284Z,8.87
2023-03-04T06:07:18.740Z,9.90
2023-03-04T06:09:46.869Z,11.60
2023-03-04T06:12:14.995Z,12.20
2023-03-04T06:14:43.144Z,15.97
2023-03-04T06:17:11.162Z,17.37
2023-03-04T06:19:39.290Z,12.50
2023-03-04T06:22:07.277Z,10.57
2023-03-04T06:24:36.941Z,10.63
2023-03-04T06:27:05.224Z,10.00
2023-03-04T06:29:33.620Z,10.07
2023-03-04T06:32:01.888Z,9.83
2023-03-04T06:34:29.914Z,9.40
2023-03-04T06:36:58.218Z,11.53
2023-03-04T06:39:26.230Z,13.57
2023-03-04T06:41:55.517Z,15.17
2023-03-04T06:44:23.647Z,13.80
2023-03-04T06:46:51.801Z,11.63
2023-03-04T06:49:19.877Z,10.87
2023-03-04T06:51:47.951Z,10.67
2023-03-04T06:54:16.088Z,11.53
2023-03-04T06:56:44.181Z,10.60
2023-03-04T06:59:13.755Z,9.53
2023-03-04T07:01:41.896Z,9.90
2023-03-04T07:04:09.968Z,9.50
2023-03-04T07:06:38.012Z,10.90
2023-03-04T07:09:06.065Z,9.67
2023-03-04T07:11:34.130Z,12.30
2023-03-04T07:14:02.148Z,9.13
2023-03-04T07:16:31.664Z,9.77
2023-03-04T07:19:25.072Z,14.10
2023-03-04T07:21:53.416Z,11.10
2023-03-04T07:24:21.833Z,10.20
2023-03-04T07:26:49.820Z,10.67
2023-03-04T07:29:18.834Z,11.00
2023-03-04T07:31:48.625Z,10.07
2023-03-04T07:34:16.873Z,10.93
2023-03-04T07:36:46.212Z,11.90
2023-03-04T07:39:14.451Z,13.40
2023-03-04T07:41:42.786Z,13.07
2023-03-04T07:44:13.444Z,12.53
2023-03-04T07:46:42.214Z,12.33
2023-03-04T07:49:14.132Z,11.43
2023-03-04T07:51:42.285Z,12.13
2023-03-04T07:54:11.209Z,11.27
2023-03-04T07:56:39.493Z,9.00
2023-03-04T07:59:07.652Z,9.77
2023-03-04T08:01:38.602Z,9.17
2023-03-04T08:04:08.638Z,9.27
2023-03-04T08:06:38.106Z,8.63
2023-03-04T08:09:08.871Z,9.63
2023-03-04T08:11:39.185Z,9.47
2023-03-04T08:14:09.162Z,8.67
2023-03-04T08:16:37.344Z,9.53
2023-03-04T08:19:06.761Z,8.77
2023-03-04T08:21:35.321Z,9.13
2023-03-04T08:24:08.687Z,8.17
2023-03-04T08:26:41.794Z,7.60
2023-03-04T08:29:13.150Z,8.17
2023-03-04T08:31:41.657Z,8.40
2023-03-04T08:34:11.444Z,8.13
2023-03-04T08:36:40.145Z,8.37
2023-03-04T08:39:10.246Z,7.77
2023-03-04T08:41:38.334Z,8.00
2023-03-04T08:44:10.244Z,8.47
2023-03-04T08:46:39.441Z,8.63
2023-03-04T08:49:07.861Z,8.77
2023-03-04T08:51:36.824Z,8.83
2023-03-04T08:54:05.673Z,10.53
2023-03-04T08:56:35.163Z,9.00
2023-03-04T08:59:05.019Z,9.10
2023-03-04T09:01:33.290Z,8.77
2023-03-04T09:04:02.056Z,9.63
2023-03-04T09:06:30.304Z,9.57
2023-03-04T09:08:58.424Z,10.03
2023-03-04T09:11:26.621Z,8.93
2023-03-04T09:13:55.952Z,9.73
2023-03-04T09:16:24.520Z,9.27
2023-03-04T09:18:52.894Z,10.43
2023-03-04T09:21:21.089Z,11.07
2023-03-04T09:23:49.131Z,10.93
2023-03-04T09:26:22.641Z,10.57
2023-03-04T09:28:57.799Z,10.33
2023-03-04T09:31:27.435Z,10.53
2023-03-04T09:33:57.919Z,10.57
2023-03-04T09:36:26.980Z,11.80
2023-03-04T09:38:55.464Z,12.30
2023-03-04T09:41:29.122Z,10.40
2023-03-04T09:43:59.063Z,10.90
2023-03-04T09:46:36.593Z,13.13
2023-03-04T09:49:07.262Z,11.67
2023-03-04T09:51:49.754Z,12.53
2023-03-04T09:54:31.330Z,11.23
2023-03-04T09:57:17.224Z,11.97
2023-03-04T09:59:53.093Z,11.57
2023-03-04T10:02:29.909Z,13.10
2023-03-04T10:05:05.317Z,13.53
2023-03-04T10:07:38.923Z,12.93
2023-03-04T10:10:14.302Z,12.20
2023-03-04T10:12:46.748Z,13.97
2023-03-04T10:15:33.204Z,12.57
2023-03-04T10:18:13.784Z,13.63
2023-03-04T10:20:54.716Z,14.27
2023-03-04T10:23:26.973Z,14.27
2023-03-04T10:25:55.995Z,13.73
2023-03-04T10:28:28.486Z,15.00
2023-03-04T10:31:05.806Z,14.40
2023-03-04T10:33:36.290Z,16.67
2023-03-04T10:36:07.675Z,14.80
2023-03-04T10:38:39.870Z,14.77
2023-03-04T10:41:15.896Z,14.10
2023-03-04T10:43:46.573Z,14.33
2023-03-04T10:46:17.267Z,14.33
2023-03-04T10:48:46.093Z,13.93
2023-03-04T10:51:21.410Z,14.87
2023-03-04T10:53:52.640Z,14.53
2023-03-04T10:56:36.131Z,13.97
2023-03-04T10:59:45.985Z,13.73
2023-03-04T11:02:29.070Z,13.40
2023-03-04T11:05:17.561Z,13.20
2023-03-04T11:07:55.667Z,12.83
2023-03-04T11:10:30.049Z,13.03
2023-03-04T11:13:10.292Z,15.27
2023-03-04T11:15:52.504Z,13.10
2023-03-04T11:18:30.632Z,12.43
2023-03-04T11:21:00.801Z,14.37
2023-03-04T11:23:40.652Z,13.60
2023-03-04T11:26:15.637Z,13.87
2023-03-04T11:28:50.654Z,13.93
2023-03-04T11:31:24.618Z,12.93
2023-03-04T11:34:01.797Z,14.40
2023-03-04T11:36:36.934Z,13.47
2023-03-04T11:39:14.866Z,13.27
2023-03-04T11:41:51.429Z,14.03
2023-03-04T11:44:19.610Z,12.43
2023-03-04T11:47:04.401Z,13.33
2023-03-04T11:49:56.023Z,11.80
2023-03-04T11:52:39.035Z,12.27
2023-03-04T12:02:31.871Z,12.30
2023-03-04T12:13:49.163Z,11.53
2023-03-04T12:16:34.739Z,11.70
2023-03-04T12:19:45.756Z,13.27
2023-03-04T12:22:35.190Z,12.23
2023-03-04T12:25:45.557Z,12.40
2023-03-04T12:28:52.341Z,12.27
2023-03-04T12:31:39.164Z,12.97
2023-03-04T12:34:36.676Z,13.33
2023-03-04T12:37:43.220Z,13.00
2023-03-04T12:40:44.976Z,13.67
2023-03-04T12:43:32.488Z,16.70
2023-03-04T12:46:16.732Z,12.77
2023-03-04T12:48:57.599Z,13.27
2023-03-04T12:51:33.835Z,13.73
2023-03-04T12:54:21.874Z,14.20
2023-03-04T12:56:55.545Z,13.93
2023-03-04T12:59:27.666Z,14.93
2023-03-04T13:02:10.012Z,13.67
2023-03-04T13:04:52.536Z,13.27
2023-03-04T13:07:35.176Z,13.90
2023-03-04T13:10:11.819Z,13.83
2023-03-04T13:12:59.499Z,13.63
2023-03-04T13:15:34.944Z,13.83
2023-03-04T13:18:27.451Z,14.23
2023-03-04T13:21:18.910Z,13.67
2023-03-04T13:23:46.948Z,14.57
2023-03-04T13:26:30.922Z,13.67
2023-03-04T13:29:34.881Z,13.23
2023-03-04T13:32:05.945Z,12.87
2023-03-04T13:34:51.759Z,13.03
2023-03-04T13:37:35.182Z,14.03
2023-03-04T13:40:36.583Z,13.30
2023-03-04T13:43:28.292Z,13.77
2023-03-04T13:45:57.058Z,13.87
2023-03-04T13:48:31.476Z,12.27
2023-03-04T13:51:00.580Z,13.30
2023-03-04T13:53:45.132Z,12.50
2023-03-04T13:56:32.440Z,11.07
2023-03-04T13:59:32.047Z,11.67
2023-03-04T14:02:05.777Z,11.63
2023-03-04T14:04:36.757Z,12.27
2023-03-04T14:07:24.643Z,12.30
2023-03-04T14:09:59.248Z,11.93
2023-03-04T14:12:30.636Z,10.77
2023-03-04T14:15:02.514Z,11.80
2023-03-04T14:17:35.140Z,9.87
2023-03-04T14:20:05.360Z,11.07
2023-03-04T14:22:38.544Z,11.33
2023-03-04T14:25:20.518Z,10.13
2023-03-04T14:27:51.455Z,11.27
2023-03-04T14:30:40.913Z,11.30
2023-03-04T14:33:25.206Z,11.20
2023-03-04T14:35:56.856Z,10.93
2023-03-04T14:38:30.707Z,9.70
2023-03-04T14:41:02.642Z,10.60
2023-03-04T14:43:37.101Z,10.47
2023-03-04T14:46:14.057Z,11.17
2023-03-04T14:48:50.070Z,11.90
2023-03-04T14:51:39.079Z,11.40
2023-03-04T14:54:07.477Z,11.00
2023-03-04T14:56:37.166Z,10.93
2023-03-04T14:59:05.226Z,11.77
2023-03-04T15:01:37.427Z,10.27
2023-03-04T15:04:09.095Z,11.17
2023-03-04T15:06:40.602Z,11.67
2023-03-04T15:09:20.064Z,11.00
2023-03-04T15:11:51.557Z,10.60
2023-03-04T15:14:45.699Z,10.87
2023-03-04T15:17:29.986Z,9.77
2023-03-04T15:20:04.338Z,9.67
2023-03-04T15:22:32.652Z,10.23
2023-03-04T15:25:02.931Z,10.00
2023-03-04T15:27:32.152Z,10.10
2023-03-04T15:30:02.158Z,10.70
2023-03-04T15:32:32.165Z,10.00
2023-03-04T15:35:00.617Z,11.47
2023-03-04T15:37:31.341Z,10.07
2023-03-04T15:39:59.843Z,10.70
2023-03-04T15:42:29.010Z,10.10
2023-03-04T15:44:57.038Z,9.30
2023-03-04T15:47:25.652Z,9.93
2023-03-04T15:49:55.063Z,9.77
2023-03-04T15:52:25.675Z,9.43
2023-03-04T15:54:53.800Z,8.43
2023-03-04T15:57:28.593Z,9.70
2023-03-04T15:59:56.620Z,10.33
2023-03-04T16:02:27.637Z,9.33
2023-03-04T16:04:57.013Z,8.73
2023-03-04T16:07:29.903Z,9.43
2023-03-04T16:10:02.470Z,9.00
2023-03-04T16:12:31.028Z,11.00
2023-03-04T16:14:59.120Z,9.07
2023-03-04T16:17:27.287Z,8.83
2023-03-04T16:19:56.637Z,9.07
2023-03-04T16:22:30.216Z,9.20
2023-03-04T16:24:58.389Z,8.67
2023-03-04T16:27:26.507Z,9.10
2023-03-04T16:29:54.600Z,8.37
2023-03-04T16:32:24.566Z,8.63
2023-03-04T16:34:52.779Z,9.87
2023-03-04T16:37:22.334Z,9.80
2023-03-04T16:39:50.544Z,9.80
2023-03-04T16:42:21.997Z,9.33
2023-03-04T16:44:51.379Z,8.60
2023-03-04T16:47:19.600Z,8.17
2023-03-04T16:49:49.827Z,9.30
2023-03-04T16:52:26.669Z,8.60
2023-03-04T16:54:54.756Z,9.20
2023-03-04T16:57:23.012Z,8.83
2023-03-04T16:59:52.260Z,8.27
2023-03-04T17:02:22.729Z,7.43
2023-03-04T17:04:52.317Z,9.30
2023-03-04T17:07:20.380Z,7.97
2023-03-04T17:09:50.464Z,8.17
2023-03-04T17:12:18.637Z,8.90
2023-03-04T17:14:46.753Z,9.27
2023-03-04T17:17:17.464Z,9.70
2023-03-04T17:19:46.781Z,9.43
2023-03-04T17:22:14.861Z,8.30
2023-03-04T17:24:42.862Z,8.57
2023-03-04T17:27:12.927Z,8.87
2023-03-04T17:29:41.209Z,8.60
2023-03-04T17:32:09.430Z,9.40
2023-03-04T17:34:37.529Z,8.80
2023-03-04T17:37:05.944Z,9.90
2023-03-04T17:39:34.004Z,8.97
2023-03-04T17:42:02.064Z,9.30
2023-03-04T17:44:31.592Z,9.43
2023-03-04T17:47:00.438Z,10.03
2023-03-04T17:49:28.667Z,9.73
2023-03-04T17:51:56.650Z,11.70
2023-03-04T17:54:24.663Z,10.47
2023-03-04T17:56:52.672Z,9.27
2023-03-04T17:59:20.934Z,8.63
2023-03-04T18:01:53.965Z,8.30
2023-03-04T18:04:22.733Z,8.07
2023-03-04T18:06:50.732Z,9.10
2023-03-04T18:09:18.732Z,8.93
2023-03-04T18:11:46.964Z,8.37
2023-03-04T18:14:15.783Z,8.77
2023-03-04T18:16:44.028Z,8.40
2023-03-04T18:19:13.369Z,8.13
2023-03-04T18:21:41.411Z,8.73
2023-03-04T18:24:09.699Z,8.53
2023-03-04T18:26:37.717Z,8.73
2023-03-04T18:29:06.454Z,9.17
2023-03-04T18:31:35.277Z,8.27
2023-03-04T18:34:04.778Z,8.73
2023-03-04T18:36:34.690Z,8.60
2023-03-04T18:39:05.186Z,8.90
2023-03-04T18:41:33.670Z,8.70
2023-03-04T18:44:01.967Z,8.87
2023-03-04T18:46:35.490Z,8.87
2023-03-04T18:49:08.641Z,11.37
2023-03-04T18:51:38.017Z,9.43
2023-03-04T18:54:06.702Z,9.37
2023-03-04T18:56:42.040Z,8.10
2023-03-04T18:59:14.820Z,9.27
2023-03-04T19:01:43.237Z,8.97
2023-03-04T19:04:12.094Z,8.40
2023-03-04T19:06:41.896Z,9.03
2023-03-04T19:09:10.075Z,9.50
2023-03-04T19:11:38.298Z,9.20
2023-03-04T19:14:06.852Z,10.67
2023-03-04T19:16:36.071Z,8.63
2023-03-04T19:19:04.218Z,10.53
2023-03-04T19:21:32.587Z,9.83
2023-03-04T19:24:01.918Z,10.57
2023-03-04T19:26:29.926Z,9.27
2023-03-04T19:28:58.519Z,9.20
2023-03-04T19:31:27.123Z,9.17
2023-03-04T19:33:55.147Z,9.30
2023-03-04T19:36:23.226Z,9.70
2023-03-04T19:38:51.254Z,9.87
2023-03-04T19:41:20.643Z,8.77
2023-03-04T19:43:52.947Z,9.50
2023-03-04T19:46:21.713Z,9.93
2023-03-04T19:48:50.174Z,9.87
2023-03-04T19:51:20.759Z,10.60
2023-03-04T19:53:50.642Z,9.27
2023-03-04T19:56:20.805Z,12.57
2023-03-04T19:58:49.700Z,11.53
2023-03-04T20:01:25.427Z,10.57
2023-03-04T20:03:53.417Z,9.77
2023-03-04T20:06:23.688Z,9.67
2023-03-04T20:08:52.022Z,10.17
2023-03-04T20:11:21.394Z,9.83
2023-03-04T20:13:49.439Z,8.97
2023-03-04T20:16:17.908Z,9.33
2023-03-04T20:18:45.986Z,8.83
2023-03-04T20:21:14.438Z,9.33
2023-03-04T20:23:42.477Z,9.30
2023-03-04T20:26:11.919Z,8.73
2023-03-04T20:28:52.958Z,8.67
2023-03-04T20:31:24.484Z,7.53
2023-03-04T20:33:54.841Z,9.17
2023-03-04T20:36:26.975Z,8.57
2023-03-04T20:39:02.105Z,9.03
2023-03-04T20:41:31.715Z,8.13
2023-03-04T20:44:01.182Z,9.30
2023-03-04T20:46:34.531Z,8.87
2023-03-04T20:49:06.156Z,8.67
2023-03-04T20:51:35.230Z,9.03
2023-03-04T20:54:04.694Z,7.77
2023-03-04T20:56:34.559Z,7.87
2023-03-04T20:59:08.623Z,8.00
2023-03-04T21:01:38.319Z,8.87
2023-03-04T21:04:07.416Z,9.63
2023-03-04T21:06:36.197Z,8.40
2023-03-04T21:09:08.304Z,8.57
2023-03-04T21:11:40.220Z,8.63
2023-03-04T21:14:15.290Z,8.47
2023-03-04T21:16:43.836Z,8.07
2023-03-04T21:19:17.547Z,9.93
2023-03-04T21:21:46.833Z,9.27
2023-03-04T21:24:17.530Z,10.90
2023-03-04T21:26:47.692Z,9.97
2023-03-04T21:29:19.059Z,9.10
2023-03-04T21:31:51.162Z,9.87
2023-03-04T21:34:22.571Z,9.00
2023-03-04T21:36:50.605Z,10.03
2023-03-04T21:39:21.889Z,9.93
2023-03-04T21:41:50.079Z,9.40
2023-03-04T21:44:28.172Z,8.47
2023-03-04T21:46:58.011Z,9.63
2023-03-04T21:49:26.449Z,10.30
2023-03-04T21:51:54.532Z,10.27
2023-03-04T21:54:22.666Z,10.47
2023-03-04T21:56:51.032Z,9.97
2023-03-04T21:59:20.446Z,9.80
2023-03-04T22:01:48.445Z,9.57
2023-03-04T22:04:16.565Z,8.67
2023-03-04T22:06:44.598Z,8.93
2023-03-04T22:09:13.144Z,9.20
2023-03-04T22:11:41.254Z,10.37
2023-03-04T22:14:09.434Z,10.93
2023-03-04T22:16:54.025Z,9.57
2023-03-04T22:19:23.251Z,9.70
2023-03-04T22:21:52.162Z,10.67
2023-03-04T22:24:21.271Z,9.97
2023-03-04T22:26:49.514Z,10.33
2023-03-04T22:29:17.717Z,9.77
2023-03-04T22:31:47.655Z,10.10
2023-03-04T22:34:16.785Z,9.73
2023-03-04T22:36:47.188Z,10.23
2023-03-04T22:39:19.475Z,10.17
2023-03-04T22:41:47.866Z,10.03
2023-03-04T22:44:16.715Z,10.50
2023-03-04T22:46:46.063Z,9.87
2023-03-04T22:49:15.208Z,9.93
2023-03-04T22:51:45.508Z,9.60
2023-03-04T22:54:15.374Z,9.73
2023-03-04T22:56:44.037Z,11.00
2023-03-04T22:59:14.734Z,10.80
2023-03-04T23:01:42.816Z,10.93
2023-03-04T23:04:16.401Z,9.90
2023-03-04T23:06:44.589Z,12.40
2023-03-04T23:09:12.586Z,10.20
2023-03-04T23:11:41.260Z,9.53
2023-03-04T23:14:11.785Z,9.60
2023-03-04T23:16:44.101Z,9.83
2023-03-04T23:19:15.410Z,10.27
2023-03-04T23:21:45.568Z,9.97
2023-03-04T23:24:15.164Z,9.53
2023-03-04T23:26:45.116Z,11.03
2023-03-04T23:29:17.375Z,11.10
2023-03-04T23:31:45.485Z,9.67
2023-03-04T23:34:14.656Z,10.27
2023-03-04T23:36:44.430Z,10.10
2023-03-04T23:39:14.158Z,10.63
2023-03-04T23:41:42.381Z,10.90
2023-03-04T23:44:12.936Z,10.27
2023-03-04T23:46:41.370Z,10.70
2023-03-04T23:49:13.052Z,9.83
2023-03-04T23:51:44.168Z,10.40
2023-03-04T23:54:15.433Z,9.83
2023-03-04T23:56:43.671Z,10.13
2023-03-04T23:59:12.867Z,10.67
